createdAt,value
2022-11-01T00:00:58.047Z,97843.98
2022-11-01T00:03:35.974Z,97852.98
2022-11-01T00:06:07.978Z,97851.52
2022-11-01T00:08:39.108Z,97844.67
2022-11-01T00:11:09.456Z,97843.66
2022-11-01T00:13:40.364Z,97843.42
2022-11-01T00:16:13.205Z,97844.90
2022-11-01T00:18:44.473Z,97852.11
2022-11-01T00:21:16.811Z,97851.70
2022-11-01T00:23:51.135Z,97858.64
2022-11-01T00:26:24.847Z,97861.16
2022-11-01T00:28:56.797Z,97861.06
2022-11-01T00:31:28.730Z,97856.92
2022-11-01T00:34:03.776Z,97862.91
2022-11-01T00:36:38.425Z,97869.88
2022-11-01T00:39:09.656Z,97874.69
2022-11-01T00:41:40.596Z,97880.20
2022-11-01T00:44:11.792Z,97878.45
2022-11-01T00:46:41.145Z,97874.50
2022-11-01T00:49:15.369Z,97877.49
2022-11-01T00:51:44.864Z,97878.94
2022-11-01T00:54:15.863Z,97879.17
2022-11-01T00:56:46.962Z,97876.00
2022-11-01T00:59:16.755Z,97871.91
2022-11-01T01:01:48.082Z,97870.94
2022-11-01T01:04:19.661Z,97867.92
2022-11-01T01:06:50.608Z,97866.89
2022-11-01T01:09:21.899Z,97871.17
2022-11-01T01:11:53.342Z,97867.73
2022-11-01T01:14:27.447Z,97867.25
2022-11-01T01:17:01.625Z,97874.80
2022-11-01T01:19:33.162Z,97871.88
2022-11-01T01:22:04.322Z,97868.76
2022-11-01T01:24:36.701Z,97862.52
2022-11-01T01:27:07.795Z,97864.15
2022-11-01T01:29:41.782Z,97856.98
2022-11-01T01:32:15.534Z,97857.09
2022-11-01T01:34:46.759Z,97852.14
2022-11-01T01:37:16.342Z,97851.58
2022-11-01T01:39:47.429Z,97849.01
2022-11-01T01:42:31.879Z,97848.78
2022-11-01T01:45:31.042Z,97850.23
2022-11-01T01:48:13.931Z,97842.05
2022-11-01T01:50:50.253Z,97835.47
2022-11-01T01:53:25.670Z,97836.19
2022-11-01T01:56:02.069Z,97832.16
2022-11-01T01:58:33.583Z,97830.73
2022-11-01T02:01:05.157Z,97827.33
2022-11-01T02:03:37.572Z,97829.48
2022-11-01T02:06:12.559Z,97832.22
2022-11-01T02:08:47.115Z,97830.44
2022-11-01T02:11:20.199Z,97832.69
2022-11-01T02:13:51.535Z,97838.39
2022-11-01T02:16:37.889Z,97838.96
2022-11-01T02:19:35.181Z,97835.70
2022-11-01T02:22:14.915Z,97837.95
2022-11-01T02:25:10.760Z,97840.20
2022-11-01T02:28:02.098Z,97841.80
2022-11-01T02:30:43.422Z,97843.75
2022-11-01T02:33:24.455Z,97840.51
2022-11-01T02:36:05.809Z,97841.56
2022-11-01T02:38:41.353Z,97835.55
2022-11-01T02:41:14.781Z,97837.04
2022-11-01T02:43:52.090Z,97836.34
2022-11-01T02:46:42.627Z,97836.90
2022-11-01T02:49:17.200Z,97833.58
2022-11-01T02:51:50.278Z,97835.50
2022-11-01T02:54:24.091Z,97834.31
2022-11-01T02:56:56.114Z,97837.70
2022-11-01T02:59:29.711Z,97841.07
2022-11-01T03:02:06.425Z,97840.46
2022-11-01T03:04:38.318Z,97836.55
2022-11-01T03:07:12.658Z,97833.70
2022-11-01T03:09:44.461Z,97838.36
2022-11-01T03:12:21.570Z,97839.80
2022-11-01T03:14:59.010Z,97836.30
2022-11-01T03:17:34.974Z,97832.77
2022-11-01T03:20:11.649Z,97820.33
2022-11-01T03:22:45.734Z,97814.95
2022-11-01T03:25:40.855Z,97807.75
2022-11-01T03:28:16.487Z,97804.52
2022-11-01T03:30:54.881Z,97799.48
2022-11-01T03:33:28.576Z,97801.79
2022-11-01T03:36:07.108Z,97810.41
2022-11-01T03:38:43.930Z,97812.05
2022-11-01T03:41:19.179Z,97818.33
2022-11-01T03:43:50.821Z,97823.71
2022-11-01T03:46:22.985Z,97833.77
2022-11-01T03:48:54.441Z,97842.73
2022-11-01T03:51:25.608Z,97837.89
2022-11-01T03:53:54.871Z,97825.51
2022-11-01T03:56:25.959Z,97827.98
2022-11-01T03:58:57.288Z,97827.77
2022-11-01T04:01:28.457Z,97823.31
2022-11-01T04:03:59.634Z,97818.42
2022-11-01T04:06:30.949Z,97817.47
2022-11-01T04:09:01.999Z,97817.94
2022-11-01T04:11:31.571Z,97814.40
2022-11-01T04:14:16.580Z,97815.81
2022-11-01T04:17:05.391Z,97810.94
2022-11-01T04:19:54.138Z,97816.28
2022-11-01T04:22:25.288Z,97827.20
2022-11-01T04:24:57.051Z,97834.67
2022-11-01T04:27:29.626Z,97835.95
2022-11-01T04:30:00.838Z,97829.65
2022-11-01T04:32:32.319Z,97829.33
2022-11-01T04:35:03.625Z,97828.83
2022-11-01T04:37:34.813Z,97818.13
2022-11-01T04:40:07.454Z,97809.88
2022-11-01T04:42:38.867Z,97818.28
2022-11-01T04:45:11.851Z,97817.95
2022-11-01T04:47:51.076Z,97806.77
2022-11-01T04:50:22.887Z,97811.00
2022-11-01T04:52:53.795Z,97827.01
2022-11-01T04:55:25.008Z,97823.27
2022-11-01T04:57:56.053Z,97813.09
2022-11-01T05:00:26.277Z,97819.16
2022-11-01T05:03:04.287Z,97830.00
2022-11-01T05:05:36.099Z,97837.44
2022-11-01T05:08:09.127Z,97836.98
2022-11-01T05:10:41.962Z,97824.66
2022-11-01T05:13:14.362Z,97811.36
2022-11-01T05:15:59.574Z,97799.94
2022-11-01T05:18:36.603Z,97798.02
2022-11-01T05:21:08.021Z,97798.03
2022-11-01T05:23:38.954Z,97784.22
2022-11-01T05:26:08.539Z,97787.48
2022-11-01T05:28:39.525Z,97787.56
2022-11-01T05:31:11.045Z,97796.33
2022-11-01T05:33:41.977Z,97809.11
2022-11-01T05:36:13.507Z,97813.50
2022-11-01T05:38:44.626Z,97814.38
2022-11-01T05:41:16.018Z,97810.02
2022-11-01T05:43:47.181Z,97817.25
2022-11-01T05:46:18.530Z,97826.23
2022-11-01T05:48:49.557Z,97821.06
2022-11-01T05:51:20.840Z,97827.35
2022-11-01T05:53:52.663Z,97822.23
2022-11-01T05:56:23.777Z,97816.17
2022-11-01T05:58:55.166Z,97815.05
2022-11-01T06:01:26.276Z,97816.92
2022-11-01T06:04:01.747Z,97818.91
2022-11-01T06:06:33.824Z,97822.87
2022-11-01T06:09:04.991Z,97831.48
2022-11-01T06:11:41.377Z,97835.85
2022-11-01T06:14:13.699Z,97842.55
2022-11-01T06:16:45.084Z,97843.08
2022-11-01T06:19:16.394Z,97845.13
2022-11-01T06:21:47.733Z,97850.82
2022-11-01T06:24:19.016Z,97860.61
2022-11-01T06:26:50.148Z,97860.13
2022-11-01T06:29:21.587Z,97868.79
2022-11-01T06:31:52.952Z,97895.93
2022-11-01T06:34:24.078Z,97918.79
2022-11-01T06:36:55.491Z,97919.86
2022-11-01T06:39:26.984Z,97914.85
2022-11-01T06:41:58.024Z,97901.10
2022-11-01T06:44:29.218Z,97880.30
2022-11-01T06:47:00.404Z,97865.98
2022-11-01T06:49:31.889Z,97861.04
2022-11-01T06:52:03.524Z,97861.74
2022-11-01T06:54:34.683Z,97858.73
2022-11-01T06:57:06.081Z,97859.73
2022-11-01T06:59:37.437Z,97859.14
2022-11-01T07:02:14.236Z,97868.31
2022-11-01T07:04:45.942Z,97874.65
2022-11-01T07:07:17.045Z,97878.61
2022-11-01T07:09:48.195Z,97885.23
2022-11-01T07:12:19.618Z,97880.06
2022-11-01T07:14:50.787Z,97875.14
2022-11-01T07:17:21.927Z,97878.05
2022-11-01T07:19:52.951Z,97867.55
2022-11-01T07:22:24.749Z,97867.89
2022-11-01T07:24:58.643Z,97859.95
2022-11-01T07:27:29.779Z,97853.27
2022-11-01T07:30:00.752Z,97854.30
2022-11-01T07:32:30.128Z,97851.49
2022-11-01T07:35:01.006Z,97858.45
2022-11-01T07:37:33.143Z,97870.39
2022-11-01T07:40:04.352Z,97877.43
2022-11-01T07:42:35.233Z,97887.17
2022-11-01T07:45:12.749Z,97892.80
2022-11-01T07:47:44.258Z,97898.80
2022-11-01T07:50:15.095Z,97897.98
2022-11-01T07:52:44.483Z,97904.51
2022-11-01T07:55:15.642Z,97900.17
2022-11-01T07:57:47.201Z,97899.51
2022-11-01T08:00:19.366Z,97907.31
2022-11-01T08:02:50.713Z,97913.13
2022-11-01T08:05:21.862Z,97907.92
2022-11-01T08:07:53.151Z,97902.13
2022-11-01T08:10:24.274Z,97909.58
2022-11-01T08:13:00.924Z,97910.27
2022-11-01T08:15:32.490Z,97912.33
2022-11-01T08:18:04.247Z,97913.15
2022-11-01T08:20:35.937Z,97913.89
2022-11-01T08:23:07.296Z,97919.96
2022-11-01T08:25:39.107Z,97926.05
2022-11-01T08:28:12.988Z,97931.75
2022-11-01T08:30:46.033Z,97939.65
2022-11-01T08:33:17.252Z,97934.30
2022-11-01T08:35:50.603Z,97939.78
2022-11-01T08:38:22.035Z,97941.70
2022-11-01T08:40:53.181Z,97938.91
2022-11-01T08:43:24.792Z,97937.75
2022-11-01T08:45:55.988Z,97948.88
2022-11-01T08:48:27.045Z,97951.41
2022-11-01T08:50:58.082Z,97949.48
2022-11-01T08:53:29.933Z,97959.61
2022-11-01T08:56:01.228Z,97953.93
2022-11-01T08:58:32.350Z,97948.82
2022-11-01T09:01:01.616Z,97952.77
2022-11-01T09:03:32.548Z,97959.58
2022-11-01T09:06:03.681Z,97956.61
2022-11-01T09:08:34.737Z,97955.45
2022-11-01T09:11:04.232Z,97951.56
2022-11-01T09:13:35.495Z,97946.44
2022-11-01T09:16:10.093Z,97949.63
2022-11-01T09:18:41.222Z,97959.36
2022-11-01T09:21:12.374Z,97951.80
2022-11-01T09:23:46.064Z,97954.93
2022-11-01T09:26:16.866Z,97946.77
2022-11-01T09:28:47.948Z,97951.61
2022-11-01T09:31:21.236Z,97956.84
2022-11-01T09:33:55.255Z,97957.70
2022-11-01T09:36:27.423Z,97962.05
2022-11-01T09:38:59.524Z,97966.42
2022-11-01T09:41:36.878Z,97972.64
2022-11-01T09:44:12.763Z,97976.48
2022-11-01T09:46:49.159Z,97980.99
2022-11-01T09:49:24.953Z,97983.41
2022-11-01T09:51:57.134Z,97981.10
2022-11-01T09:54:29.074Z,97983.57
2022-11-01T09:57:12.239Z,97978.32
2022-11-01T09:59:51.956Z,97972.59
2022-11-01T10:02:48.632Z,97970.11
2022-11-01T10:05:41.860Z,97973.46
2022-11-01T10:08:19.034Z,97980.80
2022-11-01T10:10:58.128Z,97982.93
2022-11-01T10:13:43.444Z,97978.23
2022-11-01T10:16:21.367Z,97988.29
2022-11-01T10:19:02.346Z,97989.19
2022-11-01T10:21:43.103Z,97989.89
2022-11-01T10:24:23.712Z,97980.98
2022-11-01T10:27:13.286Z,97987.62
2022-11-01T10:29:51.789Z,97990.09
2022-11-01T10:32:32.166Z,97992.30
2022-11-01T10:35:08.091Z,97992.52
2022-11-01T10:37:57.325Z,97983.45
2022-11-01T10:40:42.550Z,97978.07
2022-11-01T10:43:18.207Z,97979.70
2022-11-01T10:45:53.004Z,97980.09
2022-11-01T10:48:31.522Z,97976.43
2022-11-01T10:51:06.211Z,97974.23
2022-11-01T10:53:45.102Z,97977.18
2022-11-01T10:56:24.039Z,97983.15
2022-11-01T10:59:02.933Z,97984.29
2022-11-01T11:01:42.560Z,97990.59
2022-11-01T11:04:21.514Z,97990.20
2022-11-01T11:06:53.551Z,97980.99
2022-11-01T11:09:30.043Z,97978.02
2022-11-01T11:12:03.980Z,97973.80
2022-11-01T11:14:36.220Z,97970.69
2022-11-01T11:17:19.033Z,97975.27
2022-11-01T11:19:53.145Z,97975.80
2022-11-01T11:22:26.538Z,97977.98
2022-11-01T11:25:00.294Z,97973.55
2022-11-01T11:27:34.295Z,97962.66
2022-11-01T11:30:08.690Z,97957.38
2022-11-01T11:32:47.677Z,97954.13
2022-11-01T11:35:23.644Z,97964.21
2022-11-01T11:37:57.762Z,97960.77
2022-11-01T11:40:29.988Z,97957.36
2022-11-01T11:43:22.826Z,97968.23
2022-11-01T11:46:07.632Z,97973.46
2022-11-01T11:48:49.313Z,97969.99
2022-11-01T11:51:21.883Z,97968.59
2022-11-01T11:54:22.885Z,97973.09
2022-11-01T11:57:10.909Z,97965.33
2022-11-01T11:59:43.779Z,97957.27
2022-11-01T12:02:23.285Z,97968.17
2022-11-01T12:04:59.516Z,97971.92
2022-11-01T12:07:33.669Z,97974.13
2022-11-01T12:10:06.620Z,97969.33
2022-11-01T12:12:42.715Z,97966.45
2022-11-01T12:18:21.476Z,97969.23
2022-11-01T12:20:53.980Z,97972.28
2022-11-01T12:23:33.487Z,97965.09
2022-11-01T12:26:13.923Z,97965.06
2022-11-01T12:28:53.084Z,97964.58
2022-11-01T12:31:28.847Z,97966.57
2022-11-01T12:34:06.451Z,97967.51
2022-11-01T12:36:44.402Z,97962.67
2022-11-01T12:39:28.885Z,97968.55
2022-11-01T12:42:05.049Z,97972.25
2022-11-01T12:44:39.787Z,97966.96
2022-11-01T12:47:17.801Z,97967.58
2022-11-01T12:49:55.768Z,97971.77
2022-11-01T12:52:32.638Z,97978.11
2022-11-01T12:55:10.349Z,97980.95
2022-11-01T12:57:42.074Z,97982.80
2022-11-01T13:00:17.888Z,97968.56
2022-11-01T13:03:05.175Z,97962.93
2022-11-01T13:05:48.669Z,97962.20
2022-11-01T13:08:27.900Z,97964.23
2022-11-01T13:11:05.265Z,97963.39
2022-11-01T13:13:43.653Z,97969.58
2022-11-01T13:16:19.935Z,97974.77
2022-11-01T13:18:58.212Z,97975.48
2022-11-01T13:21:38.917Z,97970.06
2022-11-01T13:24:21.065Z,97962.46
2022-11-01T13:26:58.038Z,97964.28
2022-11-01T13:29:31.854Z,97966.67
2022-11-01T13:32:08.031Z,97981.27
2022-11-01T13:34:50.694Z,97983.86
2022-11-01T13:37:32.936Z,97978.28
2022-11-01T13:40:19.621Z,97984.30
2022-11-01T13:42:56.421Z,97984.91
2022-11-01T13:45:48.857Z,97985.70
2022-11-01T13:48:31.393Z,97990.84
2022-11-01T13:51:19.691Z,97997.38
2022-11-01T13:53:59.317Z,98001.44
2022-11-01T13:56:35.351Z,98006.54
2022-11-01T13:59:16.178Z,98004.04
2022-11-01T14:01:47.714Z,98001.73
2022-11-01T14:04:48.941Z,98004.13
2022-11-01T14:07:20.377Z,97995.62
2022-11-01T14:09:52.747Z,97991.77
2022-11-01T14:12:44.875Z,97992.16
2022-11-01T14:15:24.971Z,98001.02
2022-11-01T14:18:08.212Z,98003.35
2022-11-01T14:20:54.696Z,98011.27
2022-11-01T14:24:06.569Z,98003.80
2022-11-01T14:26:51.325Z,98008.37
2022-11-01T14:29:22.644Z,98007.92
2022-11-01T14:31:55.195Z,98009.11
2022-11-01T14:34:32.844Z,98010.27
2022-11-01T14:37:15.127Z,98017.54
2022-11-01T14:39:56.101Z,98021.74
2022-11-01T14:42:34.560Z,98021.82
2022-11-01T14:45:20.423Z,98019.80
2022-11-01T14:47:53.991Z,98016.76
2022-11-01T14:50:32.910Z,98016.83
2022-11-01T14:53:12.406Z,98020.88
2022-11-01T14:55:43.152Z,98023.30
2022-11-01T14:58:22.659Z,98017.60
2022-11-01T15:00:55.764Z,98013.84
2022-11-01T15:03:26.998Z,98012.59
2022-11-01T15:05:57.911Z,98010.46
2022-11-01T15:08:30.949Z,98012.89
2022-11-01T15:11:04.493Z,98018.75
2022-11-01T15:13:39.107Z,98021.77
2022-11-01T15:16:16.599Z,98020.13
2022-11-01T15:18:52.790Z,98024.80
2022-11-01T15:21:30.654Z,98023.44
2022-11-01T15:24:04.716Z,98026.44
2022-11-01T15:26:36.464Z,98025.11
2022-11-01T15:29:08.465Z,98022.97
2022-11-01T15:31:50.765Z,98027.04
2022-11-01T15:34:26.022Z,98024.80
2022-11-01T15:36:58.465Z,98029.52
2022-11-01T15:39:30.588Z,98035.60
2022-11-01T15:42:01.791Z,98037.28
2022-11-01T15:44:33.006Z,98043.57
2022-11-01T15:47:06.791Z,98045.11
2022-11-01T15:49:45.150Z,98041.84
2022-11-01T15:52:36.751Z,98038.41
2022-11-01T15:55:24.968Z,98036.05
2022-11-01T15:58:00.027Z,98038.27
2022-11-01T16:00:36.892Z,98031.59
2022-11-01T16:03:08.046Z,98025.67
2022-11-01T16:05:45.891Z,98030.21
2022-11-01T16:08:27.254Z,98032.05
2022-11-01T16:10:58.680Z,98033.31
2022-11-01T16:13:31.611Z,98031.17
2022-11-01T16:16:05.897Z,98029.55
2022-11-01T16:18:39.397Z,98030.11
2022-11-01T16:21:32.166Z,98031.00
2022-11-01T16:24:12.133Z,98039.77
2022-11-01T16:27:01.409Z,98046.84
2022-11-01T16:29:40.798Z,98047.52
2022-11-01T16:32:20.192Z,98052.61
2022-11-01T16:34:52.326Z,98060.19
2022-11-01T16:37:25.711Z,98060.74
2022-11-01T16:39:57.988Z,98064.77
2022-11-01T16:42:29.568Z,98059.73
2022-11-01T16:45:00.332Z,98061.93
2022-11-01T16:47:29.645Z,98061.52
2022-11-01T16:50:00.412Z,98057.82
2022-11-01T16:52:30.044Z,98054.12
2022-11-01T16:57:37.358Z,98053.15
2022-11-01T17:00:15.551Z,98058.45
2022-11-01T17:02:46.967Z,98059.25
2022-11-01T17:05:23.610Z,98065.95
2022-11-01T17:07:55.387Z,98066.70
2022-11-01T17:10:30.889Z,98072.13
2022-11-01T17:13:04.163Z,98075.42
2022-11-01T17:15:42.507Z,98079.83
2022-11-01T17:18:18.890Z,98083.02
2022-11-01T17:20:51.686Z,98089.10
2022-11-01T17:23:25.214Z,98086.23
2022-11-01T17:25:57.511Z,98088.35
2022-11-01T17:28:28.840Z,98098.61
2022-11-01T17:30:59.735Z,98098.95
2022-11-01T17:33:31.006Z,98100.65
2022-11-01T17:36:02.867Z,98094.89
2022-11-01T17:38:35.731Z,98087.31
2022-11-01T17:41:08.482Z,98088.59
2022-11-01T17:43:39.325Z,98092.77
2022-11-01T17:46:15.305Z,98095.32
2022-11-01T17:48:46.264Z,98084.23
2022-11-01T17:51:17.800Z,98079.34
2022-11-01T17:53:53.208Z,98081.02
2022-11-01T17:56:24.456Z,98090.20
2022-11-01T17:58:55.351Z,98098.14
2022-11-01T18:01:26.367Z,98098.39
2022-11-01T18:03:57.656Z,98092.00
2022-11-01T18:06:28.914Z,98097.60
2022-11-01T18:08:59.902Z,98092.97
2022-11-01T18:11:40.906Z,98084.79
2022-11-01T18:14:19.993Z,98092.93
2022-11-01T18:16:57.909Z,98096.98
2022-11-01T18:19:43.809Z,98098.20
2022-11-01T18:22:27.509Z,98096.00
2022-11-01T18:25:04.488Z,98105.91
2022-11-01T18:27:35.397Z,98110.91
2022-11-01T18:30:13.534Z,98111.45
2022-11-01T18:32:50.202Z,98116.57
2022-11-01T18:35:31.851Z,98111.75
2022-11-01T18:38:16.926Z,98107.38
2022-11-01T18:40:56.705Z,98105.95
2022-11-01T18:43:31.935Z,98103.01
2022-11-01T18:46:25.534Z,98104.61
2022-11-01T18:49:00.840Z,98100.86
2022-11-01T18:51:33.874Z,98102.73
2022-11-01T18:54:26.123Z,98101.06
2022-11-01T18:56:58.941Z,98105.36
2022-11-01T18:59:34.123Z,98106.30
2022-11-01T19:02:14.062Z,98105.90
2022-11-01T19:04:46.758Z,98101.92
2022-11-01T19:07:20.132Z,98103.44
2022-11-01T19:09:55.395Z,98107.76
2022-11-01T19:12:32.364Z,98111.66
2022-11-01T19:15:16.743Z,98105.81
2022-11-01T19:17:50.928Z,98104.02
2022-11-01T19:20:27.801Z,98103.52
2022-11-01T19:23:00.537Z,98100.86
2022-11-01T19:25:34.613Z,98105.92
2022-11-01T19:28:12.344Z,98111.14
2022-11-01T19:30:50.848Z,98111.70
2022-11-01T19:33:32.072Z,98119.09
2022-11-01T19:36:06.840Z,98120.92
2022-11-01T19:38:43.413Z,98118.48
2022-11-01T19:41:16.383Z,98117.48
2022-11-01T19:43:47.716Z,98123.08
2022-11-01T19:46:22.160Z,98120.30
2022-11-01T19:48:54.460Z,98118.06
2022-11-01T19:51:26.880Z,98123.49
2022-11-01T19:54:00.921Z,98128.95
2022-11-01T19:56:34.668Z,98131.58
2022-11-01T19:59:12.298Z,98130.86
2022-11-01T20:01:46.302Z,98125.88
2022-11-01T20:04:27.706Z,98124.15
2022-11-01T20:07:02.319Z,98131.08
2022-11-01T20:09:36.096Z,98130.27
2022-11-01T20:12:08.110Z,98132.48
2022-11-01T20:14:39.929Z,98129.48
2022-11-01T20:17:10.989Z,98125.35
2022-11-01T20:19:42.199Z,98124.61
2022-11-01T20:22:13.187Z,98125.63
2022-11-01T20:24:44.334Z,98129.99
2022-11-01T20:27:13.725Z,98136.96
2022-11-01T20:29:44.971Z,98133.81
2022-11-01T20:32:16.465Z,98134.67
2022-11-01T20:34:47.492Z,98133.61
2022-11-01T20:37:33.816Z,98141.49
2022-11-01T20:40:05.011Z,98143.02
2022-11-01T20:42:36.469Z,98139.22
2022-11-01T20:45:06.464Z,98140.09
2022-11-01T20:47:41.407Z,98142.38
2022-11-01T20:50:17.311Z,98147.08
2022-11-01T20:52:51.403Z,98145.14
2022-11-01T20:55:22.781Z,98140.09
2022-11-01T20:57:54.046Z,98143.66
2022-11-01T21:00:27.074Z,98139.40
2022-11-01T21:02:59.040Z,98141.41
2022-11-01T21:05:31.619Z,98147.16
2022-11-01T21:08:15.630Z,98149.27
2022-11-01T21:10:46.948Z,98151.45
2022-11-01T21:13:25.810Z,98153.48
2022-11-01T21:15:58.039Z,98156.80
2022-11-01T21:18:41.811Z,98155.06
2022-11-01T21:21:30.513Z,98150.44
2022-11-01T21:24:03.346Z,98151.31
2022-11-01T21:26:43.260Z,98154.40
2022-11-01T21:29:26.394Z,98149.37
2022-11-01T21:31:58.194Z,98150.97
2022-11-01T21:34:31.155Z,98152.40
2022-11-01T21:37:02.870Z,98157.52
2022-11-01T21:39:34.151Z,98152.61
2022-11-01T21:42:23.634Z,98153.38
2022-11-01T21:44:56.809Z,98152.63
2022-11-01T21:47:30.594Z,98149.39
2022-11-01T21:50:01.475Z,98144.04
2022-11-01T21:52:32.389Z,98142.63
2022-11-01T21:55:01.654Z,98137.30
2022-11-01T21:57:31.304Z,98130.02
2022-11-01T22:00:02.307Z,98131.08
2022-11-01T22:02:33.900Z,98133.11
2022-11-01T22:05:05.068Z,98136.06
2022-11-01T22:07:36.045Z,98139.66
2022-11-01T22:10:08.732Z,98136.67
2022-11-01T22:12:39.661Z,98136.55
2022-11-01T22:15:12.031Z,98132.38
2022-11-01T22:17:42.977Z,98133.98
2022-11-01T22:20:14.972Z,98137.88
2022-11-01T22:22:45.977Z,98139.52
2022-11-01T22:25:19.226Z,98139.70
2022-11-01T22:27:50.287Z,98145.20
2022-11-01T22:30:21.211Z,98146.55
2022-11-01T22:32:50.459Z,98148.70
2022-11-01T22:35:22.452Z,98143.73
2022-11-01T22:37:53.189Z,98141.33
2022-11-01T22:40:24.289Z,98140.26
2022-11-01T22:42:59.702Z,98142.86
2022-11-01T22:45:30.753Z,98143.23
2022-11-01T22:48:01.706Z,98143.33
2022-11-01T22:50:32.583Z,98140.98
2022-11-01T22:53:05.253Z,98140.27
2022-11-01T22:55:37.392Z,98137.70
2022-11-01T22:58:33.273Z,98144.70
2022-11-01T23:01:14.288Z,98143.28
2022-11-01T23:03:46.538Z,98137.15
2022-11-01T23:06:42.777Z,98141.61
2022-11-01T23:09:16.719Z,98141.92
2022-11-01T23:12:11.618Z,98144.36
2022-11-01T23:14:46.879Z,98138.09
2022-11-01T23:17:26.049Z,98140.66
2022-11-01T23:20:00.240Z,98139.89
2022-11-01T23:22:35.453Z,98143.31
2022-11-01T23:25:08.117Z,98150.45
2022-11-01T23:27:39.830Z,98149.54
2022-11-01T23:30:13.782Z,98148.83
2022-11-01T23:32:45.636Z,98149.73
2022-11-01T23:35:20.259Z,98158.44
2022-11-01T23:37:52.791Z,98157.10
2022-11-01T23:40:30.176Z,98159.56
2022-11-01T23:43:01.199Z,98158.48
2022-11-01T23:45:34.857Z,98162.17
2022-11-01T23:48:06.051Z,98159.61
2022-11-01T23:50:38.373Z,98157.60
2022-11-01T23:53:14.861Z,98158.17
2022-11-01T23:55:49.429Z,98155.14
2022-11-01T23:58:25.734Z,98151.58
